Time;durP1;ratioP1;P1;durP2;ratioP2;P2;SDS_P1;SDS_P2;PMS_P1;PMS_P2;Temp;Humidity;BMP_temperature;BMP_pressure;BME280_temperature;BME280_humidity;BME280_pressure;Samples;Min_cycle;Max_cycle;Signal;HPM_P1;HPM_P2
2021/04/15 00:00:55;;;;;;;3.65;2.00;;;19.00;25.50;;;;;;5037023;28;20029;-31
2021/04/15 00:03:29;;;;;;;2.03;1.80;;;18.90;25.50;;;;;;5041302;28;20022;-34
2021/04/15 00:05:58;;;;;;;2.30;2.00;;;19.00;25.50;;;;;;5047311;28;20078;-30
2021/04/15 00:08:24;;;;;;;2.10;1.90;;;19.00;25.40;;;;;;5044285;28;20021;-28
2021/04/15 00:10:54;;;;;;;2.00;1.80;;;19.00;25.40;;;;;;5043200;28;20625;-30
2021/04/15 00:13:43;;;;;;;1.88;1.63;;;19.00;25.30;;;;;;5050168;28;20029;-31
2021/04/15 00:16:09;;;;;;;1.85;1.55;;;19.10;25.30;;;;;;5044359;28;20044;-35
2021/04/15 00:18:36;;;;;;;1.88;1.75;;;19.00;25.30;;;;;;5055965;28;20108;-31
2021/04/15 00:21:03;;;;;;;1.63;1.50;;;19.10;25.30;;;;;;5049378;28;20025;-28
2021/04/15 00:23:29;;;;;;;2.10;1.63;;;19.10;25.40;;;;;;5045409;28;20701;-28
2021/04/15 00:25:55;;;;;;;1.67;1.58;;;19.10;25.30;;;;;;5051888;28;20036;-35
2021/04/15 00:28:21;;;;;;;2.13;1.70;;;19.20;25.20;;;;;;5052713;28;20025;-31
2021/04/15 00:30:48;;;;;;;2.38;1.83;;;19.20;25.30;;;;;;5044218;28;20033;-26
2021/04/15 00:33:15;;;;;;;1.90;1.60;;;19.10;25.20;;;;;;5026055;28;20044;-30
2021/04/15 00:35:41;;;;;;;2.60;1.70;;;19.20;25.20;;;;;;5042124;28;20103;-28
2021/04/15 00:38:09;;;;;;;1.75;1.63;;;19.20;25.20;;;;;;5025984;28;20033;-26
2021/04/15 00:40:36;;;;;;;1.85;1.60;;;19.20;25.20;;;;;;5024632;28;20440;-33
2021/04/15 00:43:03;;;;;;;1.83;1.70;;;19.20;25.20;;;;;;5029568;28;20092;-33
2021/04/15 00:45:32;;;;;;;1.70;1.55;;;19.20;25.10;;;;;;5019317;28;20623;-32
2021/04/15 00:47:58;;;;;;;2.05;1.50;;;19.30;25.10;;;;;;5023745;28;20037;-29
2021/04/15 00:50:47;;;;;;;1.70;1.60;;;19.30;25.10;;;;;;5032854;28;20064;-28
2021/04/15 00:53:20;;;;;;;1.90;1.40;;;19.30;25.00;;;;;;5034729;28;20029;-30
2021/04/15 00:55:46;;;;;;;1.58;1.48;;;19.30;24.90;;;;;;5025885;28;20044;-32
2021/04/15 00:58:12;;;;;;;2.28;1.60;;;19.30;25.10;;;;;;5030491;28;20033;-32
2021/04/15 01:00:38;;;;;;;1.60;1.50;;;19.30;25.00;;;;;;5026093;28;20109;-30
2021/04/15 01:03:04;;;;;;;1.77;1.67;;;19.30;25.00;;;;;;5023620;28;20029;-27
2021/04/15 01:05:36;;;;;;;2.40;1.55;;;19.20;25.00;;;;;;5026490;28;20105;-28
2021/04/15 01:08:03;;;;;;;1.63;1.50;;;19.20;25.00;;;;;;5017010;28;20136;-26
2021/04/15 01:10:31;;;;;;;1.70;1.60;;;19.20;25.00;;;;;;5028527;28;20034;-32
2021/04/15 01:13:18;;;;;;;2.33;1.63;;;19.10;25.10;;;;;;5034400;28;20078;-28
2021/04/15 01:16:05;;;;;;;1.75;1.65;;;19.10;25.10;;;;;;5042983;28;20061;-29
2021/04/15 01:18:46;;;;;;;2.10;1.67;;;19.10;25.10;;;;;;5024881;28;20063;-29
2021/04/15 01:21:30;;;;;;;1.70;1.60;;;19.00;25.10;;;;;;5034202;28;20020;-34
2021/04/15 01:24:11;;;;;;;2.92;2.00;;;19.10;25.20;;;;;;5029453;28;20033;-28
2021/04/15 01:27:24;;;;;;;1.63;1.40;;;19.10;25.10;;;;;;5037749;28;20715;-26
2021/04/15 01:30:10;;;;;;;1.60;1.50;;;19.00;25.20;;;;;;5012076;28;20670;-29
2021/04/15 01:32:43;;;;;;;2.10;1.60;;;19.10;25.20;;;;;;5035106;28;20082;-27
2021/04/15 01:35:09;;;;;;;1.83;1.70;;;19.00;25.20;;;;;;5030465;28;20074;-29
2021/04/15 01:37:52;;;;;;;2.17;1.90;;;19.00;25.20;;;;;;5035485;28;20555;-34
2021/04/15 01:40:20;;;;;;;1.55;1.45;;;18.90;25.20;;;;;;5025409;28;20755;-29
2021/04/15 01:43:02;;;;;;;1.58;1.48;;;19.00;25.20;;;;;;5028136;28;20562;-30
2021/04/15 01:45:29;;;;;;;1.65;1.50;;;19.00;25.20;;;;;;5026956;28;20072;-29
2021/04/15 01:47:57;;;;;;;1.45;1.35;;;19.00;25.30;;;;;;5033859;28;20029;-33
2021/04/15 01:50:33;;;;;;;1.70;1.60;;;19.00;25.20;;;;;;5024322;28;20033;-31
2021/04/15 01:53:05;;;;;;;1.63;1.50;;;19.00;25.20;;;;;;5024977;28;20284;-29
2021/04/15 01:55:38;;;;;;;1.58;1.48;;;19.00;25.20;;;;;;5033604;28;20037;-26
2021/04/15 01:58:44;;;;;;;1.35;1.25;;;18.90;25.20;;;;;;5035059;28;20033;-28
2021/04/15 02:01:15;;;;;;;1.38;1.30;;;18.90;25.20;;;;;;5006769;28;20440;-32
2021/04/15 02:03:44;;;;;;;1.80;1.50;;;18.90;25.20;;;;;;5018807;28;20113;-36
2021/04/15 02:06:19;;;;;;;1.30;1.20;;;18.90;25.30;;;;;;5026105;28;20049;-32
2021/04/15 02:08:48;;;;;;;1.40;1.30;;;19.00;25.30;;;;;;5027975;28;20036;-31
2021/04/15 02:11:22;;;;;;;1.88;1.30;;;18.90;25.10;;;;;;5024907;28;20448;-31
2021/04/15 02:13:50;;;;;;;2.00;1.67;;;18.80;25.20;;;;;;5024167;28;20033;-30
2021/04/15 02:16:20;;;;;;;1.67;1.53;;;18.80;25.30;;;;;;5017672;28;20026;-33
2021/04/15 02:18:51;;;;;;;1.45;1.35;;;18.80;25.30;;;;;;5029015;28;20379;-29
2021/04/15 02:21:41;;;;;;;2.35;1.45;;;18.80;25.40;;;;;;5028148;28;20067;-32
2021/04/15 02:24:14;;;;;;;2.08;1.30;;;18.90;25.30;;;;;;5021799;28;20009;-30
2021/04/15 02:26:42;;;;;;;1.52;1.42;;;18.80;25.20;;;;;;5023732;28;20033;-32
2021/04/15 02:29:22;;;;;;;1.83;1.73;;;18.90;25.20;;;;;;5024389;28;20041;-29
2021/04/15 02:31:57;;;;;;;1.45;1.35;;;18.80;25.20;;;;;;5017752;28;20095;-29
2021/04/15 02:34:33;;;;;;;1.38;1.23;;;18.80;25.30;;;;;;5003667;28;20427;-31
2021/04/15 02:37:10;;;;;;;1.50;1.40;;;18.90;25.20;;;;;;5024024;28;20079;-29
2021/04/15 02:39:41;;;;;;;1.95;1.50;;;18.90;25.30;;;;;;5021513;28;20525;-28
2021/04/15 02:42:10;;;;;;;2.28;1.50;;;18.90;25.30;;;;;;5024197;28;20034;-31
2021/04/15 02:44:53;;;;;;;2.00;1.42;;;18.80;25.20;;;;;;5025286;28;20067;-32
2021/04/15 02:47:33;;;;;;;1.40;1.30;;;18.80;25.30;;;;;;5024380;28;20025;-30
2021/04/15 02:50:01;;;;;;;1.90;1.52;;;18.80;25.20;;;;;;5027653;28;20029;-30
2021/04/15 02:52:33;;;;;;;1.45;1.35;;;18.70;25.30;;;;;;5029472;28;20393;-30
2021/04/15 02:55:04;;;;;;;1.60;1.50;;;18.70;25.30;;;;;;5035641;28;20028;-29
2021/04/15 02:57:33;;;;;;;1.50;1.40;;;18.70;25.50;;;;;;5029179;28;20036;-31
2021/04/15 03:00:07;;;;;;;1.58;1.40;;;18.70;25.30;;;;;;5041143;28;20025;-30
2021/04/15 03:02:44;;;;;;;1.77;1.48;;;18.70;25.30;;;;;;5036063;28;20511;-31
2021/04/15 03:05:19;;;;;;;1.50;1.40;;;18.70;25.40;;;;;;5033598;28;20029;-31
2021/04/15 03:07:47;;;;;;;1.40;1.30;;;18.70;25.50;;;;;;5035356;28;20387;-28
2021/04/15 03:10:16;;;;;;;1.40;1.30;;;18.60;25.40;;;;;;5040387;28;20027;-32
2021/04/15 03:12:46;;;;;;;1.42;1.33;;;18.60;25.40;;;;;;5034899;28;20603;-31
2021/04/15 03:15:26;;;;;;;2.00;1.40;;;18.60;25.40;;;;;;5034064;28;20025;-30
2021/04/15 03:17:58;;;;;;;1.60;1.50;;;18.60;25.40;;;;;;5040979;28;20500;-31
2021/04/15 03:20:52;;;;;;;1.88;1.35;;;18.60;25.40;;;;;;5043347;28;20108;-29
2021/04/15 03:24:01;;;;;;;1.45;1.35;;;18.60;25.40;;;;;;5011731;28;20029;-32
2021/04/15 03:26:37;;;;;;;1.50;1.40;;;18.60;25.40;;;;;;5031961;28;20456;-30
2021/04/15 03:29:14;;;;;;;2.28;1.50;;;18.70;25.40;;;;;;5035345;28;20057;-29
2021/04/15 03:31:46;;;;;;;1.60;1.50;;;18.60;25.40;;;;;;5035853;28;20037;-31
2021/04/15 03:34:26;;;;;;;1.50;1.40;;;18.60;25.30;;;;;;5033878;28;20411;-31
2021/04/15 03:36:56;;;;;;;1.40;1.30;;;18.60;25.50;;;;;;5036166;28;20024;-31
2021/04/15 03:39:32;;;;;;;1.70;1.38;;;18.60;25.40;;;;;;5033377;28;20060;-31
2021/04/15 03:42:06;;;;;;;1.50;1.40;;;18.50;26.20;;;;;;5040123;28;20032;-31
2021/04/15 03:44:38;;;;;;;1.40;1.30;;;18.50;25.40;;;;;;5035288;28;20033;-30
2021/04/15 03:47:09;;;;;;;1.48;1.38;;;18.50;25.40;;;;;;5033906;28;20481;-31
2021/04/15 03:49:57;;;;;;;1.60;1.50;;;18.60;25.40;;;;;;5036553;28;20124;-30
2021/04/15 03:52:28;;;;;;;1.65;1.33;;;18.60;25.40;;;;;;5037783;28;20526;-31
2021/04/15 03:55:15;;;;;;;1.40;1.30;;;18.60;25.40;;;;;;5031007;28;20107;-28
2021/04/15 03:57:43;;;;;;;2.22;1.50;;;18.60;25.40;;;;;;5026479;28;20400;-30
2021/04/15 04:00:12;;;;;;;1.58;1.48;;;18.50;25.40;;;;;;5040475;28;20111;-30
2021/04/15 04:02:47;;;;;;;1.65;1.55;;;18.50;25.40;;;;;;5032461;28;20041;-29
2021/04/15 04:05:20;;;;;;;1.90;1.60;;;18.50;25.40;;;;;;5032732;28;20050;-29
2021/04/15 04:07:53;;;;;;;1.58;1.40;;;18.50;25.30;;;;;;5033578;28;20041;-30
2021/04/15 04:10:34;;;;;;;1.70;1.60;;;18.50;25.50;;;;;;5026484;28;20036;-31
2021/04/15 04:13:08;;;;;;;1.58;1.48;;;18.50;25.40;;;;;;5030076;28;20026;-28
2021/04/15 04:15:39;;;;;;;1.60;1.50;;;18.50;25.40;;;;;;5028982;28;20030;-30
2021/04/15 04:18:12;;;;;;;1.63;1.52;;;18.50;25.40;;;;;;5040615;28;20420;-31
2021/04/15 04:20:39;;;;;;;1.67;1.48;;;18.60;25.40;;;;;;5042099;28;20029;-28
2021/04/15 04:23:11;;;;;;;2.00;1.65;;;18.60;25.20;;;;;;5026167;28;20026;-30
2021/04/15 04:25:53;;;;;;;1.48;1.38;;;18.50;25.30;;;;;;5036051;28;20026;-29
2021/04/15 04:28:25;;;;;;;1.50;1.40;;;18.60;25.30;;;;;;5044262;28;20029;-29
2021/04/15 04:31:02;;;;;;;1.45;1.35;;;18.50;25.20;;;;;;5040791;28;20416;-30
2021/04/15 04:33:40;;;;;;;1.30;1.20;;;18.60;25.20;;;;;;5042580;28;20275;-31
2021/04/15 04:36:09;;;;;;;1.77;1.67;;;18.60;25.10;;;;;;5046012;28;20033;-31
2021/04/15 04:38:36;;;;;;;1.60;1.50;;;18.70;25.10;;;;;;5045118;28;20585;-31
2021/04/15 04:41:09;;;;;;;1.75;1.60;;;18.60;25.10;;;;;;5040556;28;20048;-28
2021/04/15 04:43:51;;;;;;;1.95;1.42;;;18.60;25.20;;;;;;5055589;28;20625;-33
2021/04/15 04:46:37;;;;;;;3.08;1.52;;;18.50;25.20;;;;;;5039784;28;20464;-30
2021/04/15 04:49:34;;;;;;;1.50;1.40;;;18.50;25.10;;;;;;5049331;28;20033;-28
2021/04/15 04:52:11;;;;;;;2.25;1.50;;;18.50;25.20;;;;;;5038307;28;20582;-30
2021/04/15 04:54:39;;;;;;;1.60;1.50;;;18.60;25.20;;;;;;5045889;28;20113;-30
2021/04/15 04:57:19;;;;;;;2.08;1.50;;;18.60;25.20;;;;;;5044139;28;20036;-29
2021/04/15 04:59:54;;;;;;;1.73;1.55;;;18.60;25.20;;;;;;5045848;28;20064;-30
2021/04/15 05:02:19;;;;;;;2.47;1.58;;;18.60;25.10;;;;;;5047415;28;20036;-31
2021/04/15 05:04:45;;;;;;;2.00;1.40;;;18.60;25.10;;;;;;5046638;28;21374;-31
2021/04/15 05:07:23;;;;;;;1.88;1.70;;;18.60;25.10;;;;;;5043355;28;20484;-33
2021/04/15 05:09:51;;;;;;;2.35;1.50;;;18.60;25.10;;;;;;5059578;28;20074;-31
2021/04/15 05:12:20;;;;;;;1.63;1.52;;;18.70;25.00;;;;;;5047977;28;20476;-32
2021/04/15 05:14:46;;;;;;;1.70;1.45;;;18.70;25.00;;;;;;5050120;28;20045;-30
2021/04/15 05:17:36;;;;;;;2.35;1.50;;;18.70;25.00;;;;;;5047640;28;20078;-31
2021/04/15 05:20:07;;;;;;;1.50;1.40;;;18.80;24.90;;;;;;5047309;28;20040;-29
2021/04/15 05:22:39;;;;;;;1.88;1.48;;;18.80;24.90;;;;;;5053627;28;20061;-30
2021/04/15 05:25:13;;;;;;;1.70;1.48;;;18.70;24.90;;;;;;5057309;28;20017;-30
2021/04/15 05:27:40;;;;;;;1.55;1.45;;;18.70;25.00;;;;;;5046964;28;20032;-31
2021/04/15 05:30:13;;;;;;;1.60;1.50;;;18.70;25.00;;;;;;5046067;28;20028;-30
2021/04/15 05:32:41;;;;;;;1.65;1.45;;;18.70;25.00;;;;;;5023256;28;20087;-31
2021/04/15 05:35:09;;;;;;;1.50;1.40;;;18.60;25.00;;;;;;5022760;28;20033;-30
2021/04/15 05:37:34;;;;;;;1.50;1.40;;;18.70;25.00;;;;;;5030416;28;20038;-31
2021/04/15 05:40:00;;;;;;;1.55;1.45;;;18.60;25.10;;;;;;5035585;28;20056;-28
2021/04/15 05:42:37;;;;;;;1.60;1.50;;;18.70;25.80;;;;;;5037043;28;20476;-28
2021/04/15 05:45:24;;;;;;;1.45;1.35;;;18.70;25.00;;;;;;5033983;28;20549;-30
2021/04/15 05:48:01;;;;;;;1.50;1.40;;;18.60;25.00;;;;;;5046060;28;20545;-30
2021/04/15 05:50:34;;;;;;;2.00;1.77;;;18.60;25.00;;;;;;5036678;28;20041;-28
2021/04/15 05:53:11;;;;;;;1.42;1.33;;;18.70;25.10;;;;;;5042892;28;20032;-31
2021/04/15 05:55:47;;;;;;;2.40;1.60;;;18.70;25.00;;;;;;5024601;28;20029;-29
2021/04/15 05:58:22;;;;;;;1.90;1.65;;;18.70;25.00;;;;;;5028411;28;20112;-30
2021/04/15 06:00:57;;;;;;;1.75;1.65;;;18.70;25.00;;;;;;5042551;28;20032;-27
2021/04/15 06:03:57;;;;;;;1.60;1.42;;;18.70;25.10;;;;;;5054546;28;20497;-31
2021/04/15 06:06:31;;;;;;;1.60;1.50;;;18.70;25.00;;;;;;5056616;28;20032;-34
2021/04/15 06:08:59;;;;;;;1.83;1.50;;;18.70;25.10;;;;;;5052905;28;20029;-31
2021/04/15 06:11:40;;;;;;;2.63;1.77;;;18.70;25.00;;;;;;5056316;28;20059;-31
2021/04/15 06:14:23;;;;;;;1.80;1.70;;;18.80;25.00;;;;;;5059068;28;20035;-30
2021/04/15 06:17:07;;;;;;;2.28;1.80;;;18.80;25.00;;;;;;5061453;28;20024;-30
2021/04/15 06:19:34;;;;;;;1.83;1.73;;;18.80;25.10;;;;;;5052563;28;20119;-30
2021/04/15 06:22:09;;;;;;;1.60;1.50;;;18.70;25.10;;;;;;5054407;28;20028;-30
2021/04/15 06:24:35;;;;;;;2.03;1.85;;;18.70;25.10;;;;;;5052502;28;20051;-31
2021/04/15 06:27:05;;;;;;;1.92;1.77;;;18.70;25.10;;;;;;5061610;28;20025;-30
2021/04/15 06:29:40;;;;;;;1.92;1.70;;;18.70;25.00;;;;;;5057980;28;20063;-30
2021/04/15 06:32:11;;;;;;;1.83;1.70;;;18.80;25.00;;;;;;5051674;28;20040;-30
2021/04/15 06:34:36;;;;;;;1.90;1.80;;;18.90;25.00;;;;;;5053016;28;20050;-29
2021/04/15 06:37:12;;;;;;;2.17;1.67;;;18.90;24.90;;;;;;5045635;28;20090;-27
2021/04/15 06:39:50;;;;;;;2.03;1.88;;;19.00;24.90;;;;;;5041396;28;20619;-31
2021/04/15 06:42:40;;;;;;;2.15;1.75;;;18.80;24.90;;;;;;5046994;28;20021;-30
2021/04/15 06:45:12;;;;;;;1.88;1.70;;;18.90;24.90;;;;;;5050609;28;20025;-30
2021/04/15 06:47:56;;;;;;;1.90;1.80;;;18.80;25.00;;;;;;5044349;28;20025;-31
2021/04/15 06:50:51;;;;;;;2.00;1.80;;;18.80;25.00;;;;;;5048388;28;20514;-28
2021/04/15 06:53:42;;;;;;;2.58;2.20;;;18.90;24.90;;;;;;5049493;28;20020;-30
2021/04/15 06:56:24;;;;;;;2.10;1.88;;;18.80;25.00;;;;;;5050395;28;20357;-28
2021/04/15 06:59:25;;;;;;;2.20;2.00;;;18.70;25.00;;;;;;5046141;28;20139;-32
2021/04/15 07:02:02;;;;;;;2.35;2.13;;;18.70;25.80;;;;;;5051832;28;20044;-31
2021/04/15 07:04:38;;;;;;;2.67;1.90;;;18.70;25.20;;;;;;5046645;28;20488;-31
2021/04/15 07:07:11;;;;;;;2.78;1.98;;;18.70;25.10;;;;;;5047066;28;20095;-31
2021/04/15 07:10:30;;;;;;;2.10;1.90;;;18.80;25.10;;;;;;5052220;28;20047;-28
2021/04/15 07:13:10;;;;;;;2.30;2.10;;;18.90;25.00;;;;;;5010747;28;20497;-31
2021/04/15 07:16:09;;;;;;;2.60;2.10;;;18.80;25.10;;;;;;5009912;28;20038;-31
2021/04/15 07:18:58;;;;;;;2.10;1.95;;;18.80;25.00;;;;;;5039993;28;20045;-30
2021/04/15 07:21:52;;;;;;;2.58;1.95;;;18.80;25.10;;;;;;5045183;28;20056;-30
2021/04/15 07:24:51;;;;;;;3.20;2.08;;;18.80;25.10;;;;;;5044627;28;20027;-29
2021/04/15 07:27:26;;;;;;;2.20;2.00;;;18.60;25.40;;;;;;5053333;28;20025;-26
2021/04/15 07:30:15;;;;;;;2.00;1.80;;;18.60;25.50;;;;;;5049210;28;20499;-31
2021/04/15 07:33:03;;;;;;;2.60;2.08;;;18.70;25.50;;;;;;5053241;28;20685;-27
2021/04/15 07:35:37;;;;;;;2.08;1.92;;;18.80;25.40;;;;;;5045786;28;20522;-33
2021/04/15 07:38:14;;;;;;;2.78;1.95;;;18.90;25.30;;;;;;5054579;28;20128;-30
2021/04/15 07:41:05;;;;;;;2.45;2.05;;;18.80;25.10;;;;;;5042841;28;20503;-31
2021/04/15 07:43:49;;;;;;;2.47;2.00;;;18.80;25.10;;;;;;5058609;28;20149;-30
2021/04/15 07:46:43;;;;;;;2.47;1.90;;;18.70;25.20;;;;;;5050652;28;20025;-28
2021/04/15 07:49:46;;;;;;;2.92;2.10;;;18.70;25.30;;;;;;5020656;28;20045;-31
2021/04/15 07:52:30;;;;;;;2.17;1.80;;;18.80;25.30;;;;;;5038636;28;20028;-30
2021/04/15 07:55:15;;;;;;;2.22;2.03;;;18.70;25.40;;;;;;5045172;28;20029;-30
2021/04/15 07:58:06;;;;;;;2.03;1.83;;;18.60;25.40;;;;;;5037663;28;20100;-31
2021/04/15 08:00:52;;;;;;;2.28;2.08;;;18.50;25.50;;;;;;5036333;28;20036;-28
2021/04/15 08:03:41;;;;;;;2.25;2.05;;;18.70;25.50;;;;;;5041596;28;20030;-28
2021/04/15 08:06:18;;;;;;;2.72;1.88;;;18.70;25.40;;;;;;5040850;28;20033;-29
2021/04/15 08:08:55;;;;;;;2.20;1.90;;;18.80;25.40;;;;;;5044716;28;21550;-28
2021/04/15 08:11:40;;;;;;;2.20;2.00;;;18.80;25.40;;;;;;5046854;28;20112;-28
2021/04/15 08:14:43;;;;;;;2.75;1.80;;;18.90;25.30;;;;;;5041538;28;20435;-31
2021/04/15 08:17:46;;;;;;;2.20;1.88;;;18.70;25.30;;;;;;5047053;28;20117;-31
2021/04/15 08:20:28;;;;;;;2.25;1.92;;;18.70;25.40;;;;;;5043173;28;20060;-32
2021/04/15 08:23:15;;;;;;;2.17;1.80;;;18.70;25.50;;;;;;5045002;28;20412;-29
2021/04/15 08:26:11;;;;;;;2.22;2.05;;;18.70;25.50;;;;;;5046549;28;20549;-30
2021/04/15 08:29:08;;;;;;;1.90;1.80;;;18.90;25.30;;;;;;5043294;28;20029;-30
2021/04/15 08:31:47;;;;;;;2.42;1.80;;;18.70;25.40;;;;;;5045819;28;20041;-31
2021/04/15 08:34:25;;;;;;;2.55;1.70;;;18.90;25.20;;;;;;5045211;28;20446;-31
2021/04/15 08:37:06;;;;;;;2.17;1.92;;;18.70;25.40;;;;;;5049929;28;20051;-30
2021/04/15 08:39:58;;;;;;;1.80;1.70;;;18.60;25.30;;;;;;5045118;28;20028;-30
2021/04/15 08:42:29;;;;;;;2.10;1.75;;;18.80;25.30;;;;;;5027544;28;20519;-30
2021/04/15 08:45:11;;;;;;;2.63;1.80;;;18.80;25.20;;;;;;5046041;28;20025;-31
2021/04/15 08:47:55;;;;;;;1.80;1.70;;;18.60;25.40;;;;;;5042734;28;20063;-28
2021/04/15 08:50:21;;;;;;;1.98;1.77;;;18.80;25.20;;;;;;5043541;28;20029;-30
2021/04/15 08:52:59;;;;;;;1.92;1.83;;;19.10;25.10;;;;;;5054198;28;20016;-29
2021/04/15 08:55:31;;;;;;;;;;;19.20;24.70;;;;;;5049439;28;20043;-30
2021/04/15 08:58:15;;;;;;;1.70;1.60;;;19.10;24.90;;;;;;5048359;28;20298;-30
2021/04/15 09:00:44;;;;;;;2.67;1.75;;;18.90;25.10;;;;;;5047469;28;20026;-30
2021/04/15 09:03:39;;;;;;;1.63;1.52;;;18.80;25.20;;;;;;5044271;28;20021;-29
2021/04/15 09:06:29;;;;;;;1.80;1.70;;;18.90;25.20;;;;;;5042551;28;20104;-31
2021/04/15 09:09:35;;;;;;;2.13;1.63;;;19.00;25.00;;;;;;5047418;28;20036;-31
2021/04/15 09:12:06;;;;;;;1.40;1.30;;;18.80;25.10;;;;;;5019019;28;20057;-30
2021/04/15 09:15:09;;;;;;;1.75;1.38;;;18.70;25.30;;;;;;5053543;28;20274;-32
2021/04/15 09:17:57;;;;;;;1.75;1.65;;;18.60;25.50;;;;;;5060725;28;20024;-31
2021/04/15 09:20:46;;;;;;;2.13;1.55;;;18.90;25.10;;;;;;5055875;28;20058;-32
2021/04/15 09:23:21;;;;;;;1.60;1.50;;;18.70;25.20;;;;;;5060257;28;20569;-30
2021/04/15 09:25:53;;;;;;;1.55;1.45;;;18.80;25.20;;;;;;5057587;28;20127;-29
2021/04/15 09:28:28;;;;;;;1.92;1.60;;;18.90;25.00;;;;;;5062048;28;20055;-30
2021/04/15 09:31:11;;;;;;;1.90;1.80;;;19.10;25.00;;;;;;5038820;28;20044;-30
2021/04/15 09:33:55;;;;;;;1.52;1.30;;;19.20;24.70;;;;;;5049603;28;20064;-30
2021/04/15 09:36:39;;;;;;;1.75;1.60;;;19.30;24.60;;;;;;5060799;28;20012;-32
2021/04/15 09:39:20;;;;;;;1.80;1.42;;;19.30;24.50;;;;;;5061160;28;20044;-31
2021/04/15 09:41:54;;;;;;;1.40;1.25;;;19.30;24.60;;;;;;5054565;28;20037;-30
2021/04/15 09:44:57;;;;;;;1.30;1.20;;;19.20;24.60;;;;;;5050322;28;20403;-32
2021/04/15 09:47:38;;;;;;;1.42;1.33;;;19.00;24.70;;;;;;5054691;28;20028;-31
2021/04/15 09:50:22;;;;;;;1.50;1.40;;;18.90;24.90;;;;;;5059300;28;20021;-28
2021/04/15 09:53:09;;;;;;;1.40;1.30;;;18.90;24.90;;;;;;5038943;28;20614;-30
2021/04/15 09:55:53;;;;;;;1.60;1.40;;;19.00;25.00;;;;;;5040996;28;20463;-31
2021/04/15 09:58:35;;;;;;;1.50;1.40;;;19.00;24.80;;;;;;5033513;28;20037;-31
2021/04/15 10:01:09;;;;;;;1.70;1.60;;;18.90;24.90;;;;;;5048196;28;20033;-29
2021/04/15 10:03:59;;;;;;;2.05;1.77;;;18.90;24.90;;;;;;5058388;28;20027;-32
2021/04/15 10:06:38;;;;;;;1.63;1.52;;;19.20;24.50;;;;;;5056335;28;20564;-35
2021/04/15 10:09:22;;;;;;;2.00;1.83;;;19.40;24.40;;;;;;5059437;28;20033;-30
2021/04/15 10:12:01;;;;;;;1.65;1.50;;;19.30;24.40;;;;;;5064418;28;20027;-28
2021/04/15 10:14:53;;;;;;;1.50;1.40;;;19.30;24.40;;;;;;5055420;28;20431;-30
2021/04/15 10:17:44;;;;;;;1.42;1.33;;;19.30;24.30;;;;;;5063903;28;20032;-30
2021/04/15 10:20:49;;;;;;;1.80;1.45;;;19.30;24.20;;;;;;5058454;28;20075;-33
2021/04/15 10:23:34;;;;;;;1.20;1.20;;;19.30;24.20;;;;;;5057365;28;20111;-31
2021/04/15 10:26:13;;;;;;;1.38;1.10;;;19.20;24.30;;;;;;5058529;28;20020;-32
2021/04/15 10:29:07;;;;;;;1.38;1.25;;;19.00;24.50;;;;;;5054698;28;20044;-31
2021/04/15 10:31:51;;;;;;;1.33;1.25;;;18.90;24.70;;;;;;5049085;28;20041;-30
2021/04/15 10:34:46;;;;;;;1.40;1.30;;;18.70;25.00;;;;;;5045008;28;20036;-29
2021/04/15 10:37:42;;;;;;;1.25;1.13;;;18.90;24.90;;;;;;5051585;28;20035;-31
2021/04/15 10:40:23;;;;;;;1.27;1.13;;;19.00;24.80;;;;;;5046017;28;20029;-28
2021/04/15 10:42:48;;;;;;;1.40;1.30;;;19.00;24.90;;;;;;5051747;28;20372;-32
2021/04/15 10:45:29;;;;;;;1.20;1.10;;;19.00;24.90;;;;;;5048801;28;20032;-31
2021/04/15 10:48:20;;;;;;;1.40;1.17;;;18.90;25.00;;;;;;5045478;28;20048;-31
2021/04/15 10:50:49;;;;;;;1.40;1.30;;;18.70;25.10;;;;;;5047677;28;20451;-30
2021/04/15 10:53:42;;;;;;;1.27;1.17;;;18.60;25.20;;;;;;5048840;28;20040;-31
2021/04/15 10:56:13;;;;;;;1.13;1.10;;;18.60;25.40;;;;;;5051626;28;20017;-31
2021/04/15 10:58:43;;;;;;;1.20;1.10;;;18.70;25.30;;;;;;5053597;28;20074;-28
2021/04/15 11:01:26;;;;;;;1.27;1.25;;;18.50;25.30;;;;;;5061752;28;20045;-28
2021/04/15 11:04:01;;;;;;;1.42;1.33;;;18.80;25.20;;;;;;5046090;28;20484;-30
2021/04/15 11:06:47;;;;;;;1.83;1.65;;;19.10;25.00;;;;;;5050719;28;20108;-31
2021/04/15 11:09:17;;;;;;;1.95;1.70;;;19.20;24.80;;;;;;5050345;28;20104;-30
2021/04/15 11:12:02;;;;;;;1.80;1.70;;;19.30;24.70;;;;;;5052113;28;20116;-30
2021/04/15 11:14:34;;;;;;;1.73;1.63;;;19.30;24.60;;;;;;5048132;28;20025;-30
2021/04/15 11:17:05;;;;;;;1.70;1.60;;;19.30;24.50;;;;;;5056084;28;20036;-32
2021/04/15 11:19:31;;;;;;;2.00;1.52;;;19.20;24.60;;;;;;5047402;28;20066;-29
2021/04/15 11:22:12;;;;;;;1.73;1.63;;;19.30;24.50;;;;;;5051798;28;20666;-32
2021/04/15 11:24:41;;;;;;;1.48;1.38;;;19.00;24.70;;;;;;5047737;28;20075;-30
2021/04/15 11:27:08;;;;;;;1.63;1.52;;;18.70;25.00;;;;;;5052920;28;20024;-30
2021/04/15 11:29:42;;;;;;;1.50;1.40;;;18.60;25.10;;;;;;5047853;28;20032;-29
2021/04/15 11:32:38;;;;;;;1.65;1.40;;;18.70;25.10;;;;;;5056978;28;20443;-31
2021/04/15 11:35:07;;;;;;;1.40;1.30;;;18.70;25.10;;;;;;5048010;28;20025;-30
2021/04/15 11:37:35;;;;;;;2.40;1.40;;;18.70;25.10;;;;;;5055429;28;20051;-32
2021/04/15 11:40:31;;;;;;;1.27;1.25;;;18.70;25.20;;;;;;5046946;28;20028;-30
2021/04/15 11:42:58;;;;;;;2.15;1.33;;;18.70;25.10;;;;;;5058773;28;20171;-29
2021/04/15 11:45:36;;;;;;;1.40;1.30;;;18.60;25.10;;;;;;5046484;28;20484;-31
2021/04/15 11:48:21;;;;;;;1.88;1.30;;;18.80;25.10;;;;;;5052530;28;20043;-29
2021/04/15 11:51:09;;;;;;;1.95;1.23;;;18.70;25.40;;;;;;5060070;28;20021;-32
2021/04/15 11:53:49;;;;;;;1.75;1.10;;;18.70;25.30;;;;;;5055173;28;20106;-30
2021/04/15 11:56:23;;;;;;;1.40;1.30;;;18.80;25.20;;;;;;5050825;28;20025;-32
2021/04/15 11:58:49;;;;;;;2.05;1.25;;;19.00;24.90;;;;;;5053587;28;20465;-29
2021/04/15 12:01:27;;;;;;;1.30;1.20;;;19.10;24.80;;;;;;5054100;28;20056;-31
2021/04/15 12:03:59;;;;;;;1.48;1.20;;;18.80;24.90;;;;;;5050066;28;20022;-30
2021/04/15 12:06:33;;;;;;;1.40;1.30;;;18.80;25.00;;;;;;5064608;28;20091;-30
2021/04/15 12:09:01;;;;;;;1.40;1.30;;;18.90;24.90;;;;;;5049802;28;20454;-29
2021/04/15 12:11:35;;;;;;;1.30;1.20;;;18.90;24.80;;;;;;5047346;28;20491;-30
2021/04/15 12:14:09;;;;;;;1.38;1.20;;;18.90;24.90;;;;;;5054888;28;20031;-31
2021/04/15 12:17:00;;;;;;;1.52;1.15;;;19.00;24.90;;;;;;5054840;28;20059;-30
2021/04/15 12:19:43;;;;;;;1.48;1.23;;;18.80;24.90;;;;;;5050280;28;20025;-32
2021/04/15 12:22:32;;;;;;;1.40;1.13;;;18.70;25.00;;;;;;5060259;28;21543;-31
2021/04/15 12:25:14;;;;;;;1.27;1.17;;;18.80;24.90;;;;;;5053007;28;20036;-30
2021/04/15 12:27:39;;;;;;;1.38;1.25;;;18.90;24.80;;;;;;5058040;28;20025;-30
2021/04/15 12:30:05;;;;;;;1.15;1.08;;;19.00;24.60;;;;;;5050531;28;20024;-30
2021/04/15 12:32:47;;;;;;;2.28;1.30;;;18.70;24.90;;;;;;5053339;28;20628;-30
2021/04/15 12:35:32;;;;;;;1.30;1.20;;;18.70;24.90;;;;;;5051261;28;20017;-28
2021/04/15 12:38:16;;;;;;;1.40;1.30;;;18.70;24.70;;;;;;5050093;28;20623;-31
2021/04/15 12:40:44;;;;;;;2.17;1.25;;;18.80;24.60;;;;;;5055701;28;20099;-33
2021/04/15 12:43:29;;;;;;;1.05;1.00;;;19.00;24.50;;;;;;5051785;28;20100;-32
2021/04/15 12:45:58;;;;;;;1.25;1.15;;;18.70;24.60;;;;;;5051581;28;20025;-29
2021/04/15 12:48:40;;;;;;;1.48;1.20;;;18.80;24.60;;;;;;5052443;28;20159;-28
2021/04/15 12:51:07;;;;;;;1.40;1.30;;;19.20;24.30;;;;;;5047208;28;20021;-31
2021/04/15 12:53:46;;;;;;;1.63;1.30;;;18.90;24.40;;;;;;5052972;28;20513;-29
2021/04/15 12:56:29;;;;;;;2.00;1.38;;;19.20;24.30;;;;;;5055104;28;20282;-29
2021/04/15 12:58:55;;;;;;;1.30;1.20;;;19.00;24.30;;;;;;5051273;28;20028;-31
2021/04/15 13:01:21;;;;;;;1.40;1.30;;;19.10;24.30;;;;;;5058023;28;20032;-27
2021/04/15 13:03:47;;;;;;;1.27;1.17;;;19.10;24.30;;;;;;5050801;28;20036;-33
2021/04/15 13:06:21;;;;;;;1.27;1.20;;;19.00;24.50;;;;;;5052969;28;20025;-32
2021/04/15 13:08:54;;;;;;;1.50;1.27;;;18.80;24.60;;;;;;5055926;28;20021;-28
2021/04/15 13:11:20;;;;;;;1.08;1.08;;;19.00;24.50;;;;;;5051076;28;20395;-32
2021/04/15 13:13:50;;;;;;;1.50;1.40;;;18.80;24.50;;;;;;5059408;28;20036;-30
2021/04/15 13:16:35;;;;;;;1.27;1.17;;;18.90;24.50;;;;;;5052482;28;20487;-30
2021/04/15 13:19:23;;;;;;;1.30;1.20;;;18.90;24.60;;;;;;5056741;28;20067;-30
2021/04/15 13:22:07;;;;;;;1.40;1.30;;;18.80;24.70;;;;;;5050835;28;20021;-31
2021/04/15 13:24:47;;;;;;;1.73;1.15;;;18.70;24.90;;;;;;5049457;28;20083;-28
2021/04/15 13:27:35;;;;;;;2.22;1.20;;;18.80;24.90;;;;;;5054005;28;20031;-30
2021/04/15 13:30:10;;;;;;;;;;;18.80;24.70;;;;;;5053138;28;20031;-30
2021/04/15 13:33:16;;;;;;;1.50;1.40;;;19.10;24.20;;;;;;5047390;28;19934;-35
2021/04/15 13:35:53;;;;;;;1.40;1.30;;;19.30;24.20;;;;;;5033954;28;20037;-30
2021/04/15 13:41:25;;;;;;;1.65;1.38;;;19.20;24.20;;;;;;5053069;28;20062;-32
2021/04/15 13:44:13;;;;;;;1.33;1.23;;;18.90;24.60;;;;;;5038561;28;20033;-30
2021/04/15 13:46:41;;;;;;;1.80;1.05;;;19.00;24.60;;;;;;5050236;28;20025;-31